sensor_id;sensor_type;location;lat;lon;timestamp;P1;durP1;ratioP1;P2;durP2;ratioP2
38037;SDS011;23843;51.320;12.340;2024-01-27T00:02:13;1.77;;;0.60;;
38037;SDS011;23843;51.320;12.340;2024-01-27T00:04:38;0.80;;;0.47;;
38037;SDS011;23843;51.320;12.340;2024-01-27T00:07:04;1.23;;;0.67;;
38037;SDS011;23843;51.320;12.340;2024-01-27T00:09:29;2.07;;;0.50;;
38037;SDS011;23843;51.320;12.340;2024-01-27T00:11:54;1.33;;;0.50;;
38037;SDS011;23843;51.320;12.340;2024-01-27T00:14:21;0.90;;;0.60;;
38037;SDS011;23843;51.320;12.340;2024-01-27T00:16:47;2.50;;;0.80;;
38037;SDS011;23843;51.320;12.340;2024-01-27T00:19:12;1.00;;;0.63;;
38037;SDS011;23843;51.320;12.340;2024-01-27T00:21:38;1.47;;;0.83;;
38037;SDS011;23843;51.320;12.340;2024-01-27T00:24:03;0.63;;;0.47;;
38037;SDS011;23843;51.320;12.340;2024-01-27T00:26:29;0.80;;;0.50;;
38037;SDS011;23843;51.320;12.340;2024-01-27T00:28:54;0.53;;;0.37;;
38037;SDS011;23843;51.320;12.340;2024-01-27T00:31:21;0.33;;;0.20;;
38037;SDS011;23843;51.320;12.340;2024-01-27T00:33:46;0.10;;;0.10;;
38037;SDS011;23843;51.320;12.340;2024-01-27T00:36:12;0.53;;;0.20;;
38037;SDS011;23843;51.320;12.340;2024-01-27T00:38:37;0.33;;;0.10;;
38037;SDS011;23843;51.320;12.340;2024-01-27T00:41:03;0.67;;;0.20;;
38037;SDS011;23843;51.320;12.340;2024-01-27T00:43:28;0.20;;;0.20;;
38037;SDS011;23843;51.320;12.340;2024-01-27T00:45:54;0.10;;;0.10;;
38037;SDS011;23843;51.320;12.340;2024-01-27T00:48:21;0.10;;;0.10;;
38037;SDS011;23843;51.320;12.340;2024-01-27T00:50:46;1.03;;;0.20;;
38037;SDS011;23843;51.320;12.340;2024-01-27T00:53:12;0.77;;;0.20;;
38037;SDS011;23843;51.320;12.340;2024-01-27T00:55:37;0.17;;;0.17;;
38037;SDS011;23843;51.320;12.340;2024-01-27T00:58:03;0.20;;;0.20;;
38037;SDS011;23843;51.320;12.340;2024-01-27T01:00:28;0.67;;;0.20;;
38037;SDS011;23843;51.320;12.340;2024-01-27T01:02:54;0.27;;;0.10;;
38037;SDS011;23843;51.320;12.340;2024-01-27T01:05:20;0.37;;;0.10;;
38037;SDS011;23843;51.320;12.340;2024-01-27T01:07:46;0.57;;;0.07;;
38037;SDS011;23843;51.320;12.340;2024-01-27T01:10:11;0.00;;;0.00;;
38037;SDS011;23843;51.320;12.340;2024-01-27T01:12:37;0.10;;;0.10;;
38037;SDS011;23843;51.320;12.340;2024-01-27T01:15:03;0.20;;;0.10;;
38037;SDS011;23843;51.320;12.340;2024-01-27T01:17:29;0.60;;;0.13;;
38037;SDS011;23843;51.320;12.340;2024-01-27T01:19:54;0.57;;;0.30;;
38037;SDS011;23843;51.320;12.340;2024-01-27T01:22:21;0.60;;;0.60;;
38037;SDS011;23843;51.320;12.340;2024-01-27T01:24:46;0.10;;;0.10;;
38037;SDS011;23843;51.320;12.340;2024-01-27T01:27:12;0.93;;;0.40;;
38037;SDS011;23843;51.320;12.340;2024-01-27T01:29:37;1.43;;;0.40;;
38037;SDS011;23843;51.320;12.340;2024-01-27T01:32:03;0.10;;;0.10;;
38037;SDS011;23843;51.320;12.340;2024-01-27T01:34:29;0.63;;;0.13;;
38037;SDS011;23843;51.320;12.340;2024-01-27T01:36:54;1.20;;;0.20;;
38037;SDS011;23843;51.320;12.340;2024-01-27T01:39:21;0.07;;;0.07;;
38037;SDS011;23843;51.320;12.340;2024-01-27T01:41:47;0.40;;;0.07;;
38037;SDS011;23843;51.320;12.340;2024-01-27T01:44:12;0.20;;;0.10;;
38037;SDS011;23843;51.320;12.340;2024-01-27T01:46:37;0.60;;;0.20;;
38037;SDS011;23843;51.320;12.340;2024-01-27T01:49:03;0.40;;;0.20;;
38037;SDS011;23843;51.320;12.340;2024-01-27T01:51:30;0.03;;;0.03;;
38037;SDS011;23843;51.320;12.340;2024-01-27T01:53:57;0.37;;;0.10;;
38037;SDS011;23843;51.320;12.340;2024-01-27T01:56:24;1.80;;;0.20;;
38037;SDS011;23843;51.320;12.340;2024-01-27T01:58:50;0.63;;;0.20;;
38037;SDS011;23843;51.320;12.340;2024-01-27T02:01:15;0.93;;;0.20;;
38037;SDS011;23843;51.320;12.340;2024-01-27T02:03:50;0.60;;;0.20;;
38037;SDS011;23843;51.320;12.340;2024-01-27T02:06:16;0.97;;;0.20;;
38037;SDS011;23843;51.320;12.340;2024-01-27T02:08:42;0.10;;;0.10;;
38037;SDS011;23843;51.320;12.340;2024-01-27T02:11:07;0.23;;;0.10;;
38037;SDS011;23843;51.320;12.340;2024-01-27T02:13:34;0.60;;;0.10;;
38037;SDS011;23843;51.320;12.340;2024-01-27T02:16:00;2.53;;;0.20;;
38037;SDS011;23843;51.320;12.340;2024-01-27T02:18:25;0.10;;;0.10;;
38037;SDS011;23843;51.320;12.340;2024-01-27T02:20:51;0.83;;;0.10;;
38037;SDS011;23843;51.320;12.340;2024-01-27T02:23:16;0.10;;;0.10;;
38037;SDS011;23843;51.320;12.340;2024-01-27T02:25:43;0.20;;;0.10;;
38037;SDS011;23843;51.320;12.340;2024-01-27T02:28:08;0.83;;;0.10;;
38037;SDS011;23843;51.320;12.340;2024-01-27T02:30:34;0.57;;;0.23;;
38037;SDS011;23843;51.320;12.340;2024-01-27T02:33:00;0.20;;;0.20;;
38037;SDS011;23843;51.320;12.340;2024-01-27T02:35:25;1.27;;;0.30;;
38037;SDS011;23843;51.320;12.340;2024-01-27T02:37:51;0.67;;;0.30;;
38037;SDS011;23843;51.320;12.340;2024-01-27T02:40:16;1.20;;;0.40;;
38037;SDS011;23843;51.320;12.340;2024-01-27T02:42:43;2.70;;;0.30;;
38037;SDS011;23843;51.320;12.340;2024-01-27T02:45:09;0.30;;;0.10;;
38037;SDS011;23843;51.320;12.340;2024-01-27T02:47:35;0.37;;;0.10;;
38037;SDS011;23843;51.320;12.340;2024-01-27T02:50:00;0.93;;;0.40;;
38037;SDS011;23843;51.320;12.340;2024-01-27T02:52:26;0.87;;;0.30;;
38037;SDS011;23843;51.320;12.340;2024-01-27T02:54:51;0.27;;;0.20;;
38037;SDS011;23843;51.320;12.340;2024-01-27T02:57:17;0.77;;;0.30;;
38037;SDS011;23843;51.320;12.340;2024-01-27T02:59:45;0.20;;;0.20;;
38037;SDS011;23843;51.320;12.340;2024-01-27T03:02:11;0.53;;;0.30;;
38037;SDS011;23843;51.320;12.340;2024-01-27T03:04:37;0.20;;;0.10;;
38037;SDS011;23843;51.320;12.340;2024-01-27T03:07:02;0.40;;;0.30;;
38037;SDS011;23843;51.320;12.340;2024-01-27T03:09:28;0.40;;;0.20;;
38037;SDS011;23843;51.320;12.340;2024-01-27T03:11:53;0.40;;;0.27;;
38037;SDS011;23843;51.320;12.340;2024-01-27T03:14:19;0.87;;;0.20;;
38037;SDS011;23843;51.320;12.340;2024-01-27T03:16:46;1.13;;;0.30;;
38037;SDS011;23843;51.320;12.340;2024-01-27T03:19:11;0.20;;;0.20;;
38037;SDS011;23843;51.320;12.340;2024-01-27T03:21:37;2.37;;;0.50;;
38037;SDS011;23843;51.320;12.340;2024-01-27T03:24:02;0.57;;;0.30;;
38037;SDS011;23843;51.320;12.340;2024-01-27T03:26:28;1.47;;;0.23;;
38037;SDS011;23843;51.320;12.340;2024-01-27T03:28:53;0.20;;;0.10;;
38037;SDS011;23843;51.320;12.340;2024-01-27T03:31:19;0.20;;;0.17;;
38037;SDS011;23843;51.320;12.340;2024-01-27T03:33:46;0.10;;;0.10;;
38037;SDS011;23843;51.320;12.340;2024-01-27T03:36:11;0.67;;;0.47;;
38037;SDS011;23843;51.320;12.340;2024-01-27T03:38:38;0.57;;;0.20;;
38037;SDS011;23843;51.320;12.340;2024-01-27T03:41:04;0.70;;;0.07;;
38037;SDS011;23843;51.320;12.340;2024-01-27T03:43:29;0.40;;;0.20;;
38037;SDS011;23843;51.320;12.340;2024-01-27T03:45:55;0.10;;;0.03;;
38037;SDS011;23843;51.320;12.340;2024-01-27T03:48:20;0.13;;;0.10;;
38037;SDS011;23843;51.320;12.340;2024-01-27T03:50:47;0.30;;;0.13;;
38037;SDS011;23843;51.320;12.340;2024-01-27T03:53:12;0.20;;;0.10;;
38037;SDS011;23843;51.320;12.340;2024-01-27T03:55:38;0.20;;;0.10;;
38037;SDS011;23843;51.320;12.340;2024-01-27T03:58:03;1.03;;;0.20;;
38037;SDS011;23843;51.320;12.340;2024-01-27T04:00:29;0.50;;;0.50;;
38037;SDS011;23843;51.320;12.340;2024-01-27T04:02:54;0.10;;;0.10;;
38037;SDS011;23843;51.320;12.340;2024-01-27T04:05:20;0.43;;;0.27;;
38037;SDS011;23843;51.320;12.340;2024-01-27T04:07:47;0.30;;;0.20;;
38037;SDS011;23843;51.320;12.340;2024-01-27T04:10:12;0.83;;;0.20;;
38037;SDS011;23843;51.320;12.340;2024-01-27T04:12:38;0.93;;;0.23;;
38037;SDS011;23843;51.320;12.340;2024-01-27T04:15:03;0.10;;;0.10;;
38037;SDS011;23843;51.320;12.340;2024-01-27T04:17:29;2.47;;;0.40;;
38037;SDS011;23843;51.320;12.340;2024-01-27T04:19:54;0.30;;;0.10;;
38037;SDS011;23843;51.320;12.340;2024-01-27T04:22:20;1.87;;;0.47;;
38037;SDS011;23843;51.320;12.340;2024-01-27T04:24:47;1.97;;;0.30;;
38037;SDS011;23843;51.320;12.340;2024-01-27T04:27:12;0.23;;;0.20;;
38037;SDS011;23843;51.320;12.340;2024-01-27T04:29:37;1.13;;;0.50;;
38037;SDS011;23843;51.320;12.340;2024-01-27T04:32:03;1.40;;;0.30;;
38037;SDS011;23843;51.320;12.340;2024-01-27T04:34:29;0.90;;;0.30;;
38037;SDS011;23843;51.320;12.340;2024-01-27T04:36:54;0.73;;;0.30;;
38037;SDS011;23843;51.320;12.340;2024-01-27T04:39:20;0.50;;;0.17;;
38037;SDS011;23843;51.320;12.340;2024-01-27T04:41:47;0.30;;;0.20;;
38037;SDS011;23843;51.320;12.340;2024-01-27T04:44:12;1.10;;;0.40;;
38037;SDS011;23843;51.320;12.340;2024-01-27T04:46:37;1.40;;;0.60;;
38037;SDS011;23843;51.320;12.340;2024-01-27T04:49:03;1.07;;;0.30;;
38037;SDS011;23843;51.320;12.340;2024-01-27T04:51:28;1.03;;;0.43;;
38037;SDS011;23843;51.320;12.340;2024-01-27T04:53:54;1.27;;;0.33;;
38037;SDS011;23843;51.320;12.340;2024-01-27T04:56:19;2.17;;;0.40;;
38037;SDS011;23843;51.320;12.340;2024-01-27T04:58:46;1.93;;;0.40;;
38037;SDS011;23843;51.320;12.340;2024-01-27T05:01:11;1.07;;;0.43;;
38037;SDS011;23843;51.320;12.340;2024-01-27T05:03:37;1.33;;;0.33;;
38037;SDS011;23843;51.320;12.340;2024-01-27T05:06:02;2.20;;;0.40;;
38037;SDS011;23843;51.320;12.340;2024-01-27T05:08:28;0.40;;;0.27;;
38037;SDS011;23843;51.320;12.340;2024-01-27T05:10:54;0.23;;;0.10;;
38037;SDS011;23843;51.320;12.340;2024-01-27T05:13:19;0.87;;;0.30;;
38037;SDS011;23843;51.320;12.340;2024-01-27T05:15:46;0.20;;;0.20;;
38037;SDS011;23843;51.320;12.340;2024-01-27T05:18:11;1.03;;;0.40;;
38037;SDS011;23843;51.320;12.340;2024-01-27T05:20:37;0.90;;;0.20;;
38037;SDS011;23843;51.320;12.340;2024-01-27T05:23:02;0.80;;;0.20;;
38037;SDS011;23843;51.320;12.340;2024-01-27T05:25:28;0.33;;;0.10;;
38037;SDS011;23843;51.320;12.340;2024-01-27T05:27:53;0.97;;;0.30;;
38037;SDS011;23843;51.320;12.340;2024-01-27T05:30:19;0.70;;;0.20;;
38037;SDS011;23843;51.320;12.340;2024-01-27T05:32:46;0.70;;;0.30;;
38037;SDS011;23843;51.320;12.340;2024-01-27T05:35:11;0.40;;;0.10;;
38037;SDS011;23843;51.320;12.340;2024-01-27T05:37:37;0.23;;;0.10;;
38037;SDS011;23843;51.320;12.340;2024-01-27T05:40:03;0.47;;;0.20;;
38037;SDS011;23843;51.320;12.340;2024-01-27T05:42:29;1.23;;;0.20;;
38037;SDS011;23843;51.320;12.340;2024-01-27T05:44:54;0.50;;;0.20;;
38037;SDS011;23843;51.320;12.340;2024-01-27T05:47:20;0.40;;;0.23;;
38037;SDS011;23843;51.320;12.340;2024-01-27T05:49:46;1.03;;;0.40;;
38037;SDS011;23843;51.320;12.340;2024-01-27T05:52:12;0.60;;;0.30;;
38037;SDS011;23843;51.320;12.340;2024-01-27T05:54:39;2.70;;;0.60;;
38037;SDS011;23843;51.320;12.340;2024-01-27T05:57:04;1.00;;;0.37;;
38037;SDS011;23843;51.320;12.340;2024-01-27T05:59:30;0.67;;;0.33;;
38037;SDS011;23843;51.320;12.340;2024-01-27T06:01:55;1.10;;;0.30;;
38037;SDS011;23843;51.320;12.340;2024-01-27T06:04:21;0.77;;;0.30;;
38037;SDS011;23843;51.320;12.340;2024-01-27T06:06:47;0.83;;;0.30;;
38037;SDS011;23843;51.320;12.340;2024-01-27T06:09:13;0.50;;;0.20;;
38037;SDS011;23843;51.320;12.340;2024-01-27T06:11:38;1.13;;;0.30;;
38037;SDS011;23843;51.320;12.340;2024-01-27T06:14:04;0.40;;;0.30;;
38037;SDS011;23843;51.320;12.340;2024-01-27T06:16:29;2.10;;;0.60;;
38037;SDS011;23843;51.320;12.340;2024-01-27T06:18:55;1.50;;;0.50;;
38037;SDS011;23843;51.320;12.340;2024-01-27T06:21:20;1.83;;;0.40;;
38037;SDS011;23843;51.320;12.340;2024-01-27T06:23:47;0.60;;;0.30;;
38037;SDS011;23843;51.320;12.340;2024-01-27T06:26:13;1.83;;;0.40;;
38037;SDS011;23843;51.320;12.340;2024-01-27T06:28:39;1.33;;;0.40;;
38037;SDS011;23843;51.320;12.340;2024-01-27T06:31:04;1.73;;;0.30;;
38037;SDS011;23843;51.320;12.340;2024-01-27T06:33:30;0.73;;;0.20;;
38037;SDS011;23843;51.320;12.340;2024-01-27T06:35:56;1.47;;;0.47;;
38037;SDS011;23843;51.320;12.340;2024-01-27T06:38:21;2.40;;;0.20;;
38037;SDS011;23843;51.320;12.340;2024-01-27T06:40:48;0.50;;;0.30;;
38037;SDS011;23843;51.320;12.340;2024-01-27T06:43:14;0.50;;;0.13;;
38037;SDS011;23843;51.320;12.340;2024-01-27T06:45:39;1.90;;;0.40;;
38037;SDS011;23843;51.320;12.340;2024-01-27T06:48:05;0.73;;;0.20;;
38037;SDS011;23843;51.320;12.340;2024-01-27T06:50:31;1.23;;;0.30;;
38037;SDS011;23843;51.320;12.340;2024-01-27T06:52:57;0.63;;;0.20;;
38037;SDS011;23843;51.320;12.340;2024-01-27T06:55:22;0.60;;;0.40;;
38037;SDS011;23843;51.320;12.340;2024-01-27T06:57:49;0.33;;;0.20;;
38037;SDS011;23843;51.320;12.340;2024-01-27T07:00:15;0.97;;;0.60;;
38037;SDS011;23843;51.320;12.340;2024-01-27T07:02:41;0.60;;;0.30;;
38037;SDS011;23843;51.320;12.340;2024-01-27T07:05:07;0.10;;;0.10;;
38037;SDS011;23843;51.320;12.340;2024-01-27T07:07:32;1.13;;;0.30;;
38037;SDS011;23843;51.320;12.340;2024-01-27T07:09:58;1.33;;;0.30;;
38037;SDS011;23843;51.320;12.340;2024-01-27T07:12:23;0.10;;;0.10;;
38037;SDS011;23843;51.320;12.340;2024-01-27T07:14:51;0.30;;;0.10;;
38037;SDS011;23843;51.320;12.340;2024-01-27T07:17:17;0.30;;;0.20;;
38037;SDS011;23843;51.320;12.340;2024-01-27T07:19:42;0.20;;;0.20;;
38037;SDS011;23843;51.320;12.340;2024-01-27T07:22:08;1.13;;;0.40;;
38037;SDS011;23843;51.320;12.340;2024-01-27T07:24:33;1.30;;;0.13;;
38037;SDS011;23843;51.320;12.340;2024-01-27T07:26:59;0.70;;;0.47;;
38037;SDS011;23843;51.320;12.340;2024-01-27T07:29:25;0.57;;;0.20;;
38037;SDS011;23843;51.320;12.340;2024-01-27T07:31:51;0.30;;;0.20;;
38037;SDS011;23843;51.320;12.340;2024-01-27T07:34:17;0.43;;;0.23;;
38037;SDS011;23843;51.320;12.340;2024-01-27T07:36:43;1.40;;;0.40;;
38037;SDS011;23843;51.320;12.340;2024-01-27T07:39:09;1.13;;;0.30;;
38037;SDS011;23843;51.320;12.340;2024-01-27T07:41:34;0.83;;;0.30;;
38037;SDS011;23843;51.320;12.340;2024-01-27T07:44:06;0.30;;;0.17;;
38037;SDS011;23843;51.320;12.340;2024-01-27T07:46:32;1.23;;;0.10;;
38037;SDS011;23843;51.320;12.340;2024-01-27T07:48:59;0.00;;;0.00;;
38037;SDS011;23843;51.320;12.340;2024-01-27T07:51:24;1.43;;;0.20;;
38037;SDS011;23843;51.320;12.340;2024-01-27T07:53:50;0.13;;;0.10;;
38037;SDS011;23843;51.320;12.340;2024-01-27T07:56:15;0.10;;;0.10;;
38037;SDS011;23843;51.320;12.340;2024-01-27T07:58:40;0.93;;;0.30;;
38037;SDS011;23843;51.320;12.340;2024-01-27T08:01:06;0.07;;;0.07;;
38037;SDS011;23843;51.320;12.340;2024-01-27T08:03:31;0.10;;;0.10;;
38037;SDS011;23843;51.320;12.340;2024-01-27T08:05:58;0.30;;;0.30;;
38037;SDS011;23843;51.320;12.340;2024-01-27T08:08:24;0.47;;;0.40;;
38037;SDS011;23843;51.320;12.340;2024-01-27T08:10:49;0.93;;;0.43;;
38037;SDS011;23843;51.320;12.340;2024-01-27T08:13:14;1.13;;;0.40;;
38037;SDS011;23843;51.320;12.340;2024-01-27T08:15:40;0.50;;;0.40;;
38037;SDS011;23843;51.320;12.340;2024-01-27T08:18:06;0.50;;;0.40;;
38037;SDS011;23843;51.320;12.340;2024-01-27T08:20:31;0.90;;;0.40;;
38037;SDS011;23843;51.320;12.340;2024-01-27T08:22:58;1.57;;;0.50;;
38037;SDS011;23843;51.320;12.340;2024-01-27T08:25:23;0.60;;;0.30;;
38037;SDS011;23843;51.320;12.340;2024-01-27T08:27:49;0.60;;;0.30;;
38037;SDS011;23843;51.320;12.340;2024-01-27T08:30:14;0.70;;;0.40;;
38037;SDS011;23843;51.320;12.340;2024-01-27T08:32:40;0.97;;;0.50;;
38037;SDS011;23843;51.320;12.340;2024-01-27T08:35:06;0.80;;;0.40;;
38037;SDS011;23843;51.320;12.340;2024-01-27T08:37:32;0.57;;;0.30;;
38037;SDS011;23843;51.320;12.340;2024-01-27T08:39:58;0.57;;;0.47;;
38037;SDS011;23843;51.320;12.340;2024-01-27T08:42:24;1.07;;;0.40;;
38037;SDS011;23843;51.320;12.340;2024-01-27T08:44:49;0.90;;;0.60;;
38037;SDS011;23843;51.320;12.340;2024-01-27T08:47:15;2.80;;;0.60;;
38037;SDS011;23843;51.320;12.340;2024-01-27T08:49:40;1.03;;;0.60;;
38037;SDS011;23843;51.320;12.340;2024-01-27T08:52:06;0.70;;;0.40;;
38037;SDS011;23843;51.320;12.340;2024-01-27T08:54:31;1.93;;;0.83;;
38037;SDS011;23843;51.320;12.340;2024-01-27T08:56:58;1.20;;;0.60;;
38037;SDS011;23843;51.320;12.340;2024-01-27T08:59:23;1.40;;;0.50;;
38037;SDS011;23843;51.320;12.340;2024-01-27T09:01:49;0.73;;;0.43;;
38037;SDS011;23843;51.320;12.340;2024-01-27T09:04:14;1.03;;;0.43;;
38037;SDS011;23843;51.320;12.340;2024-01-27T09:06:39;1.33;;;0.77;;
38037;SDS011;23843;51.320;12.340;2024-01-27T09:09:05;1.57;;;0.60;;
38037;SDS011;23843;51.320;12.340;2024-01-27T09:11:30;0.97;;;0.87;;
38037;SDS011;23843;51.320;12.340;2024-01-27T09:13:57;1.23;;;0.50;;
38037;SDS011;23843;51.320;12.340;2024-01-27T09:16:23;1.40;;;0.70;;
38037;SDS011;23843;51.320;12.340;2024-01-27T09:18:48;2.40;;;0.80;;
38037;SDS011;23843;51.320;12.340;2024-01-27T09:21:14;1.47;;;0.70;;
38037;SDS011;23843;51.320;12.340;2024-01-27T09:23:39;2.33;;;0.90;;
38037;SDS011;23843;51.320;12.340;2024-01-27T09:26:04;2.13;;;1.00;;
38037;SDS011;23843;51.320;12.340;2024-01-27T09:28:30;2.53;;;0.70;;
38037;SDS011;23843;51.320;12.340;2024-01-27T09:30:57;2.57;;;0.77;;
38037;SDS011;23843;51.320;12.340;2024-01-27T09:33:22;2.30;;;1.03;;
38037;SDS011;23843;51.320;12.340;2024-01-27T09:35:48;3.87;;;0.90;;
38037;SDS011;23843;51.320;12.340;2024-01-27T09:38:13;3.53;;;1.10;;
38037;SDS011;23843;51.320;12.340;2024-01-27T09:40:38;3.00;;;1.03;;
38037;SDS011;23843;51.320;12.340;2024-01-27T09:43:04;1.43;;;0.73;;
38037;SDS011;23843;51.320;12.340;2024-01-27T09:45:29;2.33;;;0.70;;
38037;SDS011;23843;51.320;12.340;2024-01-27T09:47:57;2.00;;;0.70;;
38037;SDS011;23843;51.320;12.340;2024-01-27T09:50:24;1.40;;;0.53;;
38037;SDS011;23843;51.320;12.340;2024-01-27T09:52:50;1.37;;;0.73;;
38037;SDS011;23843;51.320;12.340;2024-01-27T09:55:15;1.47;;;0.73;;
38037;SDS011;23843;51.320;12.340;2024-01-27T09:57:41;1.90;;;0.80;;
38037;SDS011;23843;51.320;12.340;2024-01-27T10:00:07;3.13;;;0.70;;
38037;SDS011;23843;51.320;12.340;2024-01-27T10:02:35;3.77;;;0.80;;
38037;SDS011;23843;51.320;12.340;2024-01-27T10:05:04;2.57;;;0.80;;
38037;SDS011;23843;51.320;12.340;2024-01-27T10:07:32;2.47;;;0.87;;
38037;SDS011;23843;51.320;12.340;2024-01-27T10:09:57;1.90;;;0.80;;
38037;SDS011;23843;51.320;12.340;2024-01-27T10:12:23;1.03;;;0.63;;
38037;SDS011;23843;51.320;12.340;2024-01-27T10:14:53;2.57;;;0.90;;
38037;SDS011;23843;51.320;12.340;2024-01-27T10:17:20;1.00;;;0.50;;
38037;SDS011;23843;51.320;12.340;2024-01-27T10:19:46;3.27;;;0.90;;
38037;SDS011;23843;51.320;12.340;2024-01-27T10:22:13;1.87;;;0.80;;
38037;SDS011;23843;51.320;12.340;2024-01-27T10:24:38;2.77;;;0.90;;
38037;SDS011;23843;51.320;12.340;2024-01-27T10:27:03;2.83;;;1.00;;
38037;SDS011;23843;51.320;12.340;2024-01-27T10:29:29;2.87;;;1.17;;
38037;SDS011;23843;51.320;12.340;2024-01-27T10:31:55;4.10;;;1.20;;
38037;SDS011;23843;51.320;12.340;2024-01-27T10:34:20;2.57;;;1.50;;
38037;SDS011;23843;51.320;12.340;2024-01-27T10:36:46;1.30;;;0.87;;
38037;SDS011;23843;51.320;12.340;2024-01-27T10:39:19;2.07;;;0.97;;
38037;SDS011;23843;51.320;12.340;2024-01-27T10:41:46;1.50;;;0.80;;
38037;SDS011;23843;51.320;12.340;2024-01-27T10:44:13;2.00;;;0.97;;
38037;SDS011;23843;51.320;12.340;2024-01-27T10:46:40;1.43;;;0.60;;
38037;SDS011;23843;51.320;12.340;2024-01-27T10:49:08;2.03;;;0.70;;
38037;SDS011;23843;51.320;12.340;2024-01-27T10:51:37;1.77;;;0.80;;
38037;SDS011;23843;51.320;12.340;2024-01-27T10:54:08;2.73;;;0.70;;
38037;SDS011;23843;51.320;12.340;2024-01-27T10:56:40;3.03;;;1.03;;
38037;SDS011;23843;51.320;12.340;2024-01-27T10:59:08;2.07;;;0.90;;
38037;SDS011;23843;51.320;12.340;2024-01-27T11:01:35;1.83;;;0.80;;
38037;SDS011;23843;51.320;12.340;2024-01-27T11:04:03;2.07;;;0.93;;
38037;SDS011;23843;51.320;12.340;2024-01-27T11:06:29;1.73;;;0.80;;
38037;SDS011;23843;51.320;12.340;2024-01-27T11:08:57;2.33;;;0.80;;
38037;SDS011;23843;51.320;12.340;2024-01-27T11:11:24;2.63;;;0.83;;
38037;SDS011;23843;51.320;12.340;2024-01-27T11:13:51;1.10;;;0.60;;
38037;SDS011;23843;51.320;12.340;2024-01-27T11:16:18;1.37;;;0.70;;
38037;SDS011;23843;51.320;12.340;2024-01-27T11:18:44;1.23;;;0.60;;
38037;SDS011;23843;51.320;12.340;2024-01-27T11:21:12;2.00;;;0.60;;
38037;SDS011;23843;51.320;12.340;2024-01-27T11:23:38;3.57;;;1.10;;
38037;SDS011;23843;51.320;12.340;2024-01-27T11:26:04;2.53;;;0.87;;
38037;SDS011;23843;51.320;12.340;2024-01-27T11:28:31;3.67;;;1.10;;
38037;SDS011;23843;51.320;12.340;2024-01-27T11:30:58;2.10;;;0.90;;
38037;SDS011;23843;51.320;12.340;2024-01-27T11:33:27;2.47;;;1.03;;
38037;SDS011;23843;51.320;12.340;2024-01-27T11:35:59;3.03;;;0.90;;
38037;SDS011;23843;51.320;12.340;2024-01-27T11:38:25;4.00;;;1.00;;
38037;SDS011;23843;51.320;12.340;2024-01-27T11:40:50;3.10;;;0.70;;
38037;SDS011;23843;51.320;12.340;2024-01-27T11:43:16;2.67;;;0.97;;
38037;SDS011;23843;51.320;12.340;2024-01-27T11:45:41;1.87;;;0.80;;
38037;SDS011;23843;51.320;12.340;2024-01-27T11:48:08;2.40;;;0.80;;
38037;SDS011;23843;51.320;12.340;2024-01-27T11:50:34;3.00;;;0.73;;
38037;SDS011;23843;51.320;12.340;2024-01-27T11:52:59;2.90;;;1.23;;
38037;SDS011;23843;51.320;12.340;2024-01-27T11:55:25;2.27;;;0.90;;
38037;SDS011;23843;51.320;12.340;2024-01-27T11:57:51;1.80;;;1.03;;
38037;SDS011;23843;51.320;12.340;2024-01-27T12:00:16;0.77;;;0.47;;
38037;SDS011;23843;51.320;12.340;2024-01-27T12:02:42;1.17;;;0.50;;
38037;SDS011;23843;51.320;12.340;2024-01-27T12:05:09;0.63;;;0.40;;
38037;SDS011;23843;51.320;12.340;2024-01-27T12:07:35;1.27;;;0.50;;
38037;SDS011;23843;51.320;12.340;2024-01-27T12:10:01;1.93;;;0.70;;
38037;SDS011;23843;51.320;12.340;2024-01-27T12:12:26;1.80;;;0.70;;
38037;SDS011;23843;51.320;12.340;2024-01-27T12:14:52;1.40;;;0.50;;
38037;SDS011;23843;51.320;12.340;2024-01-27T12:17:17;2.23;;;0.70;;
38037;SDS011;23843;51.320;12.340;2024-01-27T12:19:45;0.60;;;0.40;;
38037;SDS011;23843;51.320;12.340;2024-01-27T12:22:20;1.00;;;0.40;;
38037;SDS011;23843;51.320;12.340;2024-01-27T12:24:47;1.53;;;1.00;;
38037;SDS011;23843;51.320;12.340;2024-01-27T12:27:12;0.90;;;0.40;;
38037;SDS011;23843;51.320;12.340;2024-01-27T12:29:40;1.17;;;0.40;;
38037;SDS011;23843;51.320;12.340;2024-01-27T12:32:06;1.43;;;1.03;;
38037;SDS011;23843;51.320;12.340;2024-01-27T12:34:31;2.90;;;0.50;;
38037;SDS011;23843;51.320;12.340;2024-01-27T12:36:57;0.47;;;0.47;;
38037;SDS011;23843;51.320;12.340;2024-01-27T12:39:25;1.20;;;0.40;;
38037;SDS011;23843;51.320;12.340;2024-01-27T12:41:51;0.30;;;0.30;;
38037;SDS011;23843;51.320;12.340;2024-01-27T12:44:16;1.10;;;0.40;;
38037;SDS011;23843;51.320;12.340;2024-01-27T12:46:42;0.37;;;0.20;;
38037;SDS011;23843;51.320;12.340;2024-01-27T12:49:08;0.50;;;0.40;;
38037;SDS011;23843;51.320;12.340;2024-01-27T12:51:33;0.47;;;0.30;;
38037;SDS011;23843;51.320;12.340;2024-01-27T12:53:58;0.93;;;0.70;;
38037;SDS011;23843;51.320;12.340;2024-01-27T12:56:25;1.57;;;0.30;;
38037;SDS011;23843;51.320;12.340;2024-01-27T12:58:51;0.20;;;0.17;;
38037;SDS011;23843;51.320;12.340;2024-01-27T13:01:16;1.00;;;0.30;;
38037;SDS011;23843;51.320;12.340;2024-01-27T13:03:42;0.27;;;0.20;;
38037;SDS011;23843;51.320;12.340;2024-01-27T13:06:07;1.07;;;0.20;;
38037;SDS011;23843;51.320;12.340;2024-01-27T13:08:33;0.27;;;0.23;;
38037;SDS011;23843;51.320;12.340;2024-01-27T13:10:58;0.63;;;0.23;;
38037;SDS011;23843;51.320;12.340;2024-01-27T13:13:25;0.87;;;0.40;;
38037;SDS011;23843;51.320;12.340;2024-01-27T13:15:51;1.60;;;0.30;;
38037;SDS011;23843;51.320;12.340;2024-01-27T13:18:16;1.90;;;0.50;;
38037;SDS011;23843;51.320;12.340;2024-01-27T13:20:42;0.70;;;0.30;;
38037;SDS011;23843;51.320;12.340;2024-01-27T13:23:07;0.20;;;0.13;;
38037;SDS011;23843;51.320;12.340;2024-01-27T13:25:33;0.53;;;0.20;;
38037;SDS011;23843;51.320;12.340;2024-01-27T13:27:59;0.20;;;0.10;;
38037;SDS011;23843;51.320;12.340;2024-01-27T13:30:25;0.20;;;0.20;;
38037;SDS011;23843;51.320;12.340;2024-01-27T13:32:51;0.67;;;0.20;;
38037;SDS011;23843;51.320;12.340;2024-01-27T13:35:16;0.53;;;0.20;;
38037;SDS011;23843;51.320;12.340;2024-01-27T13:37:42;1.33;;;0.33;;
38037;SDS011;23843;51.320;12.340;2024-01-27T13:40:07;0.37;;;0.30;;
38037;SDS011;23843;51.320;12.340;2024-01-27T13:42:33;0.87;;;0.40;;
38037;SDS011;23843;51.320;12.340;2024-01-27T13:44:59;0.50;;;0.30;;
38037;SDS011;23843;51.320;12.340;2024-01-27T13:47:26;0.20;;;0.20;;
38037;SDS011;23843;51.320;12.340;2024-01-27T13:49:51;0.20;;;0.20;;
38037;SDS011;23843;51.320;12.340;2024-01-27T13:52:17;1.13;;;0.33;;
38037;SDS011;23843;51.320;12.340;2024-01-27T13:54:42;1.00;;;0.50;;
38037;SDS011;23843;51.320;12.340;2024-01-27T13:57:08;0.27;;;0.27;;
38037;SDS011;23843;51.320;12.340;2024-01-27T13:59:34;0.77;;;0.30;;
38037;SDS011;23843;51.320;12.340;2024-01-27T14:02:00;1.07;;;0.50;;
38037;SDS011;23843;51.320;12.340;2024-01-27T14:04:27;0.40;;;0.23;;
38037;SDS011;23843;51.320;12.340;2024-01-27T14:06:52;0.40;;;0.30;;
38037;SDS011;23843;51.320;12.340;2024-01-27T14:09:18;0.30;;;0.30;;
38037;SDS011;23843;51.320;12.340;2024-01-27T14:11:44;0.73;;;0.40;;
38037;SDS011;23843;51.320;12.340;2024-01-27T14:14:09;1.40;;;0.40;;
38037;SDS011;23843;51.320;12.340;2024-01-27T14:16:35;2.10;;;0.30;;
38037;SDS011;23843;51.320;12.340;2024-01-27T14:19:00;0.87;;;0.30;;
38037;SDS011;23843;51.320;12.340;2024-01-27T14:21:27;0.57;;;0.23;;
38037;SDS011;23843;51.320;12.340;2024-01-27T14:23:52;1.90;;;0.43;;
38037;SDS011;23843;51.320;12.340;2024-01-27T14:26:18;0.10;;;0.10;;